createdAt,value
2022-10-31T00:01:10.157Z,50.00
2022-10-31T00:03:37.094Z,49.87
2022-10-31T00:06:03.969Z,50.13
2022-10-31T00:08:31.796Z,50.17
2022-10-31T00:10:58.846Z,50.29
2022-10-31T00:13:25.691Z,50.22
2022-10-31T00:15:52.337Z,50.39
2022-10-31T00:18:19.461Z,50.40
2022-10-31T00:20:46.102Z,50.67
2022-10-31T00:23:12.838Z,50.72
2022-10-31T00:25:40.648Z,50.72
2022-10-31T00:28:08.338Z,51.11
2022-10-31T00:30:35.139Z,51.33
2022-10-31T00:33:03.997Z,51.59
2022-10-31T00:35:32.053Z,51.40
2022-10-31T00:37:59.052Z,51.28
2022-10-31T00:40:26.061Z,51.31
2022-10-31T00:42:53.469Z,51.72
2022-10-31T00:45:20.405Z,51.67
2022-10-31T00:47:48.022Z,51.67
2022-10-31T00:50:14.914Z,51.72
2022-10-31T00:52:41.714Z,51.56
2022-10-31T00:55:08.481Z,51.46
2022-10-31T00:57:35.568Z,51.68
2022-10-31T01:00:04.922Z,51.67
2022-10-31T01:02:31.753Z,51.80
2022-10-31T01:04:58.495Z,52.02
2022-10-31T01:07:25.381Z,52.20
2022-10-31T01:09:52.353Z,52.34
2022-10-31T01:12:20.118Z,52.27
2022-10-31T01:14:46.860Z,52.42
2022-10-31T01:17:14.392Z,52.03
2022-10-31T01:19:41.148Z,52.17
2022-10-31T01:22:08.145Z,52.27
2022-10-31T01:24:34.948Z,52.40
2022-10-31T01:27:02.588Z,52.57
2022-10-31T01:29:32.750Z,52.48
2022-10-31T01:31:59.875Z,52.58
2022-10-31T01:34:26.585Z,52.68
2022-10-31T01:36:53.511Z,52.67
2022-10-31T01:39:20.488Z,52.66
2022-10-31T01:41:48.817Z,52.78
2022-10-31T01:44:15.513Z,52.56
2022-10-31T01:47:11.833Z,52.62
2022-10-31T01:49:41.074Z,52.85
2022-10-31T01:52:17.508Z,52.81
2022-10-31T01:54:47.062Z,52.84
2022-10-31T01:57:15.653Z,52.94
2022-10-31T01:59:48.041Z,53.30
2022-10-31T02:02:16.195Z,53.73
2022-10-31T02:04:43.904Z,53.82
2022-10-31T02:07:13.389Z,53.77
2022-10-31T02:09:40.764Z,54.08
2022-10-31T02:12:09.486Z,54.39
2022-10-31T02:14:36.662Z,54.47
2022-10-31T02:17:04.040Z,54.53
2022-10-31T02:19:30.908Z,54.68
2022-10-31T02:22:03.924Z,54.89
2022-10-31T02:24:47.225Z,55.36
2022-10-31T02:27:23.317Z,55.49
2022-10-31T02:29:56.305Z,55.40
2022-10-31T02:32:31.048Z,55.33
2022-10-31T02:35:04.169Z,55.48
2022-10-31T02:37:37.791Z,55.59
2022-10-31T02:40:10.709Z,55.37
2022-10-31T02:43:04.607Z,55.67
2022-10-31T02:45:40.132Z,55.93
2022-10-31T02:48:10.818Z,55.98
2022-10-31T02:50:41.078Z,56.14
2022-10-31T02:53:10.076Z,56.04
2022-10-31T02:55:38.233Z,55.93
2022-10-31T02:58:11.103Z,56.24
2022-10-31T03:00:56.879Z,56.69
2022-10-31T03:03:24.492Z,56.43
2022-10-31T03:06:06.915Z,56.85
2022-10-31T03:08:36.913Z,57.08
2022-10-31T03:11:06.157Z,57.03
2022-10-31T03:13:33.550Z,57.41
2022-10-31T03:16:08.564Z,57.32
2022-10-31T03:18:38.941Z,57.37
2022-10-31T03:21:13.751Z,57.31
2022-10-31T03:23:41.553Z,57.12
2022-10-31T03:26:09.507Z,57.37
2022-10-31T03:28:42.101Z,57.38
2022-10-31T03:31:10.033Z,57.48
2022-10-31T03:33:41.472Z,57.35
2022-10-31T03:36:10.043Z,57.89
2022-10-31T03:38:38.168Z,57.73
2022-10-31T03:41:07.238Z,58.05
2022-10-31T03:43:38.458Z,57.85
2022-10-31T03:46:06.161Z,57.89
2022-10-31T03:48:33.552Z,58.38
2022-10-31T03:51:19.406Z,58.60
2022-10-31T03:53:49.596Z,58.45
2022-10-31T03:56:28.957Z,58.53
2022-10-31T03:58:56.106Z,58.70
2022-10-31T04:01:25.735Z,59.18
2022-10-31T04:03:53.019Z,59.25
2022-10-31T04:06:22.042Z,59.07
2022-10-31T04:08:53.889Z,59.56
2022-10-31T04:11:24.230Z,59.70
2022-10-31T04:14:12.298Z,59.59
2022-10-31T04:16:44.079Z,59.51
2022-10-31T04:19:12.933Z,59.74
2022-10-31T04:21:40.314Z,60.14
2022-10-31T04:24:07.146Z,60.39
2022-10-31T04:26:34.157Z,60.31
2022-10-31T04:29:00.891Z,60.47
2022-10-31T04:31:28.636Z,60.40
2022-10-31T04:33:55.561Z,60.34
2022-10-31T04:36:22.356Z,60.40
2022-10-31T04:38:49.122Z,60.60
2022-10-31T04:41:47.830Z,60.64
2022-10-31T04:44:15.418Z,60.67
2022-10-31T04:46:42.687Z,60.95
2022-10-31T04:49:10.678Z,61.01
2022-10-31T04:51:37.675Z,61.40
2022-10-31T04:54:04.888Z,61.21
2022-10-31T04:56:31.646Z,61.50
2022-10-31T04:59:06.598Z,61.75
2022-10-31T05:01:46.760Z,61.60
2022-10-31T05:04:13.890Z,61.61
2022-10-31T05:06:41.678Z,61.76
2022-10-31T05:09:09.037Z,61.97
2022-10-31T05:11:35.769Z,61.75
2022-10-31T05:14:17.536Z,61.80
2022-10-31T05:17:03.597Z,61.92
2022-10-31T05:19:53.106Z,61.94
2022-10-31T05:22:43.845Z,62.17
2022-10-31T05:25:12.253Z,62.35
2022-10-31T05:27:46.212Z,62.19
2022-10-31T05:30:14.979Z,62.08
2022-10-31T05:32:46.166Z,62.44
2022-10-31T05:35:36.062Z,62.47
2022-10-31T05:38:18.854Z,62.79
2022-10-31T05:40:45.869Z,63.14
2022-10-31T05:43:13.999Z,62.78
2022-10-31T05:45:40.986Z,62.98
2022-10-31T05:48:16.896Z,63.02
2022-10-31T05:51:02.874Z,63.11
2022-10-31T05:53:30.289Z,63.13
2022-10-31T05:55:56.968Z,63.40
2022-10-31T05:58:23.872Z,63.78
2022-10-31T06:00:59.973Z,63.78
2022-10-31T06:03:27.099Z,63.84
2022-10-31T06:05:56.378Z,63.68
2022-10-31T06:08:37.171Z,63.42
2022-10-31T06:11:11.967Z,63.43
2022-10-31T06:13:56.985Z,63.71
2022-10-31T06:16:29.838Z,63.67
2022-10-31T06:19:01.928Z,63.47
2022-10-31T06:21:28.913Z,63.69
2022-10-31T06:23:56.692Z,63.81
2022-10-31T06:26:36.720Z,63.76
2022-10-31T06:29:04.289Z,63.70
2022-10-31T06:32:03.475Z,63.94
2022-10-31T06:34:32.905Z,63.96
2022-10-31T06:37:00.114Z,63.80
2022-10-31T06:39:28.426Z,63.71
2022-10-31T06:41:55.125Z,63.53
2022-10-31T06:44:23.468Z,63.64
2022-10-31T06:46:50.226Z,63.59
2022-10-31T06:49:40.390Z,63.63
2022-10-31T06:52:13.842Z,63.29
2022-10-31T06:54:41.577Z,63.76
2022-10-31T06:57:08.938Z,63.62
2022-10-31T06:59:38.025Z,63.97
2022-10-31T07:02:20.297Z,63.83
2022-10-31T07:04:48.849Z,64.08
2022-10-31T07:07:17.787Z,64.00
2022-10-31T07:09:45.872Z,64.17
2022-10-31T07:12:16.717Z,64.14
2022-10-31T07:14:51.864Z,64.01
2022-10-31T07:17:18.674Z,64.11
2022-10-31T07:19:45.616Z,63.74
2022-10-31T07:22:15.938Z,63.93
2022-10-31T07:24:44.538Z,63.88
2022-10-31T07:27:37.630Z,63.88
2022-10-31T07:30:09.601Z,63.67
2022-10-31T07:32:40.479Z,63.93
2022-10-31T07:35:12.324Z,63.65
2022-10-31T07:37:53.533Z,63.74
2022-10-31T07:40:20.806Z,63.71
2022-10-31T07:42:48.817Z,63.63
2022-10-31T07:45:35.602Z,63.38
2022-10-31T07:48:21.625Z,63.37
2022-10-31T07:51:08.084Z,63.54
2022-10-31T07:53:57.955Z,63.55
2022-10-31T07:56:28.510Z,63.50
2022-10-31T07:58:55.527Z,63.34
2022-10-31T08:01:22.267Z,63.42
2022-10-31T08:04:07.317Z,63.53
2022-10-31T08:07:03.300Z,63.27
2022-10-31T08:09:35.172Z,62.82
2022-10-31T08:12:08.261Z,62.89
2022-10-31T08:14:36.263Z,62.74
2022-10-31T08:17:03.495Z,62.74
2022-10-31T08:19:40.407Z,62.28
2022-10-31T08:22:10.045Z,62.20
2022-10-31T08:24:37.201Z,61.87
2022-10-31T08:27:04.076Z,61.78
2022-10-31T08:29:33.067Z,61.82
2022-10-31T08:31:59.965Z,61.56
2022-10-31T08:34:59.518Z,61.52
2022-10-31T08:37:45.004Z,61.45
2022-10-31T08:40:12.255Z,61.05
2022-10-31T08:42:40.425Z,60.86
2022-10-31T08:45:07.800Z,61.13
2022-10-31T08:47:35.777Z,60.92
2022-10-31T08:50:02.765Z,60.97
2022-10-31T08:52:58.903Z,60.81
2022-10-31T08:55:17.016Z,60.60
2022-10-31T08:57:46.556Z,60.99
2022-10-31T09:00:13.914Z,60.94
2022-10-31T09:03:13.809Z,60.66
2022-10-31T09:05:43.803Z,60.65
2022-10-31T09:08:16.267Z,60.77
2022-10-31T09:10:46.338Z,60.62
2022-10-31T09:13:17.285Z,61.00
2022-10-31T09:16:03.083Z,60.29
2022-10-31T09:18:32.901Z,60.18
2022-10-31T09:21:01.450Z,59.75
2022-10-31T09:23:30.564Z,59.66
2022-10-31T09:25:59.971Z,59.37
2022-10-31T09:28:47.294Z,59.20
2022-10-31T09:31:16.023Z,59.51
2022-10-31T09:33:59.210Z,58.70
2022-10-31T09:36:39.106Z,58.25
2022-10-31T09:39:14.741Z,58.26
2022-10-31T09:41:56.253Z,57.74
2022-10-31T09:44:44.728Z,57.26
2022-10-31T09:47:20.837Z,57.20
2022-10-31T09:50:08.947Z,56.88
2022-10-31T09:52:37.706Z,56.76
2022-10-31T09:55:16.276Z,56.55
2022-10-31T09:57:43.622Z,56.29
2022-10-31T10:00:18.742Z,56.62
2022-10-31T10:03:03.816Z,56.40
2022-10-31T10:05:38.734Z,55.89
2022-10-31T10:08:34.363Z,56.15
2022-10-31T10:11:39.441Z,55.69
2022-10-31T10:14:16.585Z,55.42
2022-10-31T10:16:58.403Z,55.21
2022-10-31T10:19:51.266Z,55.05
2022-10-31T10:22:18.281Z,54.65
2022-10-31T10:24:48.109Z,54.04
2022-10-31T10:27:23.639Z,53.71
2022-10-31T10:30:03.097Z,53.20
2022-10-31T10:32:32.508Z,53.12
2022-10-31T10:35:25.740Z,52.99
2022-10-31T10:38:05.284Z,52.84
2022-10-31T10:40:32.383Z,52.52
2022-10-31T10:43:17.821Z,52.41
2022-10-31T10:46:09.225Z,52.08
2022-10-31T10:48:46.329Z,52.42
2022-10-31T10:51:47.006Z,51.08
2022-10-31T10:54:21.034Z,50.56
2022-10-31T10:57:11.249Z,50.95
2022-10-31T10:59:38.513Z,50.71
2022-10-31T11:02:16.673Z,50.75
2022-10-31T11:04:44.195Z,50.42
2022-10-31T11:07:11.778Z,50.38
2022-10-31T11:09:38.977Z,49.93
2022-10-31T11:12:18.146Z,49.60
2022-10-31T11:14:47.712Z,48.89
2022-10-31T11:17:28.258Z,48.80
2022-10-31T11:20:07.422Z,48.42
2022-10-31T11:22:34.679Z,48.40
2022-10-31T11:25:01.394Z,47.97
2022-10-31T11:27:29.281Z,48.03
2022-10-31T11:30:05.027Z,48.02
2022-10-31T11:32:31.939Z,47.79
2022-10-31T11:35:00.225Z,47.69
2022-10-31T11:37:28.546Z,47.90
2022-10-31T11:40:05.170Z,47.12
2022-10-31T11:42:42.469Z,47.61
2022-10-31T11:45:15.564Z,47.42
2022-10-31T11:47:51.368Z,47.31
2022-10-31T11:50:22.104Z,47.01
2022-10-31T11:52:49.951Z,46.66
2022-10-31T11:55:18.447Z,46.33
2022-10-31T11:57:49.908Z,46.24
2022-10-31T12:03:14.573Z,46.08
2022-10-31T12:05:42.664Z,45.46
2022-10-31T12:08:11.151Z,45.41
2022-10-31T12:10:45.899Z,45.30
2022-10-31T12:13:31.518Z,45.41
2022-10-31T12:16:18.577Z,45.73
2022-10-31T12:18:51.535Z,45.51
2022-10-31T12:21:57.319Z,45.37
2022-10-31T12:24:46.271Z,44.98
2022-10-31T12:27:27.850Z,44.96
2022-10-31T12:30:00.638Z,44.99
2022-10-31T12:32:29.942Z,45.12
2022-10-31T12:35:22.569Z,45.19
2022-10-31T12:38:01.917Z,44.84
2022-10-31T12:40:49.931Z,44.89
2022-10-31T12:43:37.832Z,44.77
2022-10-31T12:46:06.287Z,44.75
2022-10-31T12:48:40.367Z,44.62
2022-10-31T12:51:21.939Z,44.84
2022-10-31T12:53:57.778Z,44.88
2022-10-31T12:56:43.465Z,44.82
2022-10-31T12:59:30.380Z,44.64
2022-10-31T13:02:01.737Z,44.46
2022-10-31T13:04:37.217Z,44.36
2022-10-31T13:07:08.743Z,44.06
2022-10-31T13:09:41.633Z,44.29
2022-10-31T13:12:13.800Z,44.06
2022-10-31T13:14:43.960Z,43.73
2022-10-31T13:17:34.037Z,44.30
2022-10-31T13:20:16.311Z,43.57
2022-10-31T13:22:45.232Z,43.59
2022-10-31T13:25:17.269Z,43.46
2022-10-31T13:27:47.577Z,43.44
2022-10-31T13:30:19.261Z,43.52
2022-10-31T13:32:58.320Z,43.29
2022-10-31T13:35:25.673Z,43.45
2022-10-31T13:38:11.006Z,44.05
2022-10-31T13:40:43.624Z,43.68
2022-10-31T13:43:25.630Z,44.21
2022-10-31T13:45:53.837Z,44.04
2022-10-31T13:48:33.830Z,44.49
2022-10-31T13:51:03.217Z,44.56
2022-10-31T13:53:41.017Z,44.46
2022-10-31T13:56:10.750Z,44.80
2022-10-31T13:58:37.674Z,44.85
2022-10-31T14:01:13.780Z,44.69
2022-10-31T14:06:43.367Z,44.52
2022-10-31T14:09:26.010Z,45.01
2022-10-31T14:11:53.455Z,44.68
2022-10-31T14:14:21.157Z,44.66
2022-10-31T14:16:55.724Z,44.69
2022-10-31T14:19:23.384Z,45.61
2022-10-31T14:21:51.477Z,45.13
2022-10-31T14:24:25.583Z,44.96
2022-10-31T14:27:15.780Z,44.85
2022-10-31T14:29:47.896Z,44.71
2022-10-31T14:32:24.429Z,44.88
2022-10-31T14:34:51.329Z,44.99
2022-10-31T14:37:20.869Z,45.40
2022-10-31T14:39:59.745Z,45.22
2022-10-31T14:42:26.432Z,45.22
2022-10-31T14:45:03.479Z,45.53
2022-10-31T14:47:36.812Z,46.00
2022-10-31T14:50:22.708Z,46.44
2022-10-31T14:52:54.623Z,46.97
2022-10-31T14:55:21.873Z,46.99
2022-10-31T14:58:15.017Z,47.14
2022-10-31T15:00:44.093Z,47.18
2022-10-31T15:03:10.911Z,47.35
2022-10-31T15:05:46.274Z,47.69
2022-10-31T15:08:31.912Z,48.04
2022-10-31T15:10:58.875Z,48.27
2022-10-31T15:13:25.692Z,48.40
2022-10-31T15:15:55.203Z,48.19
2022-10-31T15:18:24.367Z,48.12
2022-10-31T15:20:51.414Z,48.59
2022-10-31T15:23:22.878Z,49.02
2022-10-31T15:25:49.783Z,48.72
2022-10-31T15:28:22.525Z,49.24
2022-10-31T15:30:54.222Z,49.30
2022-10-31T15:33:22.685Z,49.46
2022-10-31T15:35:56.861Z,49.96
2022-10-31T15:38:24.560Z,50.01
2022-10-31T15:40:57.315Z,49.84
2022-10-31T15:43:24.554Z,49.94
2022-10-31T15:45:51.801Z,49.75
2022-10-31T15:48:20.266Z,49.66
2022-10-31T15:50:56.121Z,50.00
2022-10-31T15:53:35.825Z,50.03
2022-10-31T15:56:04.931Z,50.13
2022-10-31T15:58:33.579Z,50.38
2022-10-31T16:01:01.841Z,50.67
2022-10-31T16:03:30.423Z,50.90
2022-10-31T16:06:01.689Z,50.86
2022-10-31T16:08:31.549Z,51.18
2022-10-31T16:11:01.634Z,51.30
2022-10-31T16:13:30.095Z,51.25
2022-10-31T16:16:21.200Z,51.48
2022-10-31T16:18:45.577Z,51.63
2022-10-31T16:21:12.716Z,51.64
2022-10-31T16:23:44.822Z,51.56
2022-10-31T16:26:17.942Z,51.59
2022-10-31T16:29:03.311Z,51.30
2022-10-31T16:31:38.107Z,51.71
2022-10-31T16:34:15.576Z,51.82
2022-10-31T16:36:42.917Z,51.77
2022-10-31T16:39:09.738Z,51.69
2022-10-31T16:41:39.301Z,51.81
2022-10-31T16:44:12.153Z,52.14
2022-10-31T16:46:39.302Z,51.81
2022-10-31T16:49:09.410Z,52.03
2022-10-31T16:51:36.273Z,52.05
2022-10-31T16:54:02.934Z,52.28
2022-10-31T16:56:32.468Z,52.63
2022-10-31T16:59:00.353Z,52.83
2022-10-31T17:01:27.132Z,52.76
2022-10-31T17:03:54.054Z,52.74
2022-10-31T17:06:20.740Z,52.71
2022-10-31T17:08:47.601Z,52.65
2022-10-31T17:11:22.338Z,52.79
2022-10-31T17:13:49.256Z,52.98
2022-10-31T17:16:16.163Z,52.91
2022-10-31T17:18:43.896Z,52.95
2022-10-31T17:21:12.842Z,53.08
2022-10-31T17:23:39.595Z,53.08
2022-10-31T17:26:08.833Z,53.18
2022-10-31T17:28:35.572Z,53.22
2022-10-31T17:31:02.516Z,53.60
2022-10-31T17:33:29.588Z,53.34
2022-10-31T17:35:56.445Z,53.44
2022-10-31T17:38:23.229Z,53.69
2022-10-31T17:40:50.199Z,53.70
2022-10-31T17:43:16.998Z,53.75
2022-10-31T17:45:43.793Z,53.90
2022-10-31T17:48:13.938Z,54.79
2022-10-31T17:50:41.738Z,56.29
2022-10-31T17:53:08.502Z,57.09
2022-10-31T17:55:37.241Z,56.24
2022-10-31T17:58:05.171Z,55.77
2022-10-31T18:00:31.994Z,55.42
2022-10-31T18:02:59.276Z,55.25
2022-10-31T18:05:26.315Z,55.05
2022-10-31T18:07:53.197Z,54.96
2022-10-31T18:10:20.069Z,55.34
2022-10-31T18:12:48.752Z,55.41
2022-10-31T18:15:16.288Z,55.36
2022-10-31T18:17:43.231Z,55.37
2022-10-31T18:20:10.256Z,55.44
2022-10-31T18:22:37.107Z,55.51
2022-10-31T18:25:04.509Z,55.65
2022-10-31T18:27:31.292Z,55.75
2022-10-31T18:29:58.039Z,55.65
2022-10-31T18:32:24.922Z,55.67
2022-10-31T18:34:51.630Z,56.00
2022-10-31T18:37:18.508Z,56.05
2022-10-31T18:39:46.140Z,56.22
2022-10-31T18:42:12.942Z,56.25
2022-10-31T18:44:39.699Z,56.28
2022-10-31T18:47:06.486Z,56.63
2022-10-31T18:49:33.688Z,56.81
2022-10-31T18:52:00.783Z,56.79
2022-10-31T18:54:27.566Z,56.64
2022-10-31T18:56:54.980Z,56.86
2022-10-31T18:59:22.212Z,57.00
2022-10-31T19:01:49.187Z,57.22
2022-10-31T19:04:16.169Z,57.24
2022-10-31T19:06:42.969Z,57.26
2022-10-31T19:09:09.824Z,57.43
2022-10-31T19:11:37.653Z,57.84
2022-10-31T19:14:05.553Z,58.02
2022-10-31T19:16:32.302Z,58.17
2022-10-31T19:19:00.124Z,58.06
2022-10-31T19:21:27.541Z,58.16
2022-10-31T19:23:56.329Z,57.86
2022-10-31T19:26:24.785Z,58.21
2022-10-31T19:28:51.610Z,58.20
2022-10-31T19:31:19.020Z,58.46
2022-10-31T19:33:46.001Z,58.63
2022-10-31T19:36:14.900Z,58.62
2022-10-31T19:38:42.887Z,58.83
2022-10-31T19:41:14.634Z,58.82
2022-10-31T19:43:41.995Z,59.00
2022-10-31T19:46:17.545Z,59.24
2022-10-31T19:48:49.592Z,59.12
2022-10-31T19:51:17.776Z,59.11
2022-10-31T19:53:44.605Z,59.24
2022-10-31T19:56:13.045Z,59.73
2022-10-31T19:58:40.156Z,59.26
2022-10-31T20:01:11.248Z,59.75
2022-10-31T20:03:39.046Z,59.69
2022-10-31T20:06:06.585Z,59.97
2022-10-31T20:08:39.453Z,59.84
2022-10-31T20:11:06.683Z,59.85
2022-10-31T20:13:33.789Z,59.93
2022-10-31T20:16:02.194Z,60.20
2022-10-31T20:18:29.991Z,60.40
2022-10-31T20:21:04.879Z,60.38
2022-10-31T20:23:32.571Z,60.14
2022-10-31T20:25:59.408Z,60.17
2022-10-31T20:28:26.597Z,60.43
2022-10-31T20:30:53.607Z,60.33
2022-10-31T20:33:20.460Z,60.64
2022-10-31T20:35:47.191Z,61.08
2022-10-31T20:38:14.013Z,60.60
2022-10-31T20:40:40.886Z,60.95
2022-10-31T20:43:07.834Z,61.22
2022-10-31T20:45:34.930Z,60.81
2022-10-31T20:48:01.918Z,61.23
2022-10-31T20:50:29.179Z,61.44
2022-10-31T20:52:56.650Z,60.97
2022-10-31T20:55:23.699Z,61.46
2022-10-31T20:57:50.491Z,61.37
2022-10-31T21:00:17.654Z,61.27
2022-10-31T21:02:44.555Z,61.51
2022-10-31T21:05:12.080Z,61.58
2022-10-31T21:07:39.421Z,61.78
2022-10-31T21:10:14.978Z,61.79
2022-10-31T21:12:45.178Z,62.19
2022-10-31T21:15:13.676Z,61.73
2022-10-31T21:17:41.727Z,61.78
2022-10-31T21:20:10.074Z,62.05
2022-10-31T21:22:37.518Z,62.01
2022-10-31T21:25:04.603Z,62.31
2022-10-31T21:27:31.443Z,62.16
2022-10-31T21:29:58.367Z,62.20
2022-10-31T21:32:25.189Z,62.33
2022-10-31T21:34:51.988Z,62.42
2022-10-31T21:37:18.757Z,62.46
2022-10-31T21:39:50.437Z,62.84
2022-10-31T21:42:21.335Z,62.91
2022-10-31T21:44:49.398Z,62.71
2022-10-31T21:47:16.198Z,62.84
2022-10-31T21:49:43.253Z,62.84
2022-10-31T21:52:10.399Z,62.89
2022-10-31T21:54:37.668Z,63.08
2022-10-31T21:57:04.470Z,63.43
2022-10-31T21:59:31.188Z,63.05
2022-10-31T22:01:59.749Z,63.26
2022-10-31T22:04:27.456Z,63.30
2022-10-31T22:06:54.280Z,63.24
2022-10-31T22:09:23.246Z,63.37
2022-10-31T22:11:50.875Z,63.45
2022-10-31T22:14:17.630Z,63.84
2022-10-31T22:16:44.609Z,63.79
2022-10-31T22:19:12.530Z,64.03
2022-10-31T22:21:49.092Z,63.74
2022-10-31T22:24:16.815Z,63.81
2022-10-31T22:26:43.750Z,64.18
2022-10-31T22:29:11.777Z,63.92
2022-10-31T22:31:40.193Z,64.06
2022-10-31T22:34:07.234Z,64.51
2022-10-31T22:36:33.946Z,64.55
2022-10-31T22:39:01.227Z,64.52
2022-10-31T22:41:28.893Z,64.73
2022-10-31T22:43:56.522Z,64.40
2022-10-31T22:46:24.489Z,64.68
2022-10-31T22:48:55.562Z,65.03
2022-10-31T22:51:23.731Z,65.06
2022-10-31T22:53:50.646Z,65.11
2022-10-31T22:56:20.676Z,65.20
2022-10-31T22:58:47.706Z,65.29
2022-10-31T23:01:33.576Z,65.37
2022-10-31T23:04:01.108Z,65.43
2022-10-31T23:06:30.246Z,65.35
2022-10-31T23:08:57.490Z,65.18
2022-10-31T23:11:25.940Z,65.71
2022-10-31T23:14:08.960Z,65.73
2022-10-31T23:16:55.813Z,65.74
2022-10-31T23:19:23.866Z,65.67
2022-10-31T23:21:56.277Z,65.47
2022-10-31T23:24:25.792Z,65.99
2022-10-31T23:27:08.413Z,66.20
2022-10-31T23:29:36.738Z,66.30
2022-10-31T23:32:04.097Z,66.67
2022-10-31T23:34:30.860Z,66.67
2022-10-31T23:36:57.726Z,66.82
2022-10-31T23:39:25.259Z,66.78
2022-10-31T23:41:52.298Z,66.89
2022-10-31T23:44:19.030Z,66.97
2022-10-31T23:46:45.788Z,66.89
2022-10-31T23:49:12.696Z,66.95
2022-10-31T23:51:39.995Z,67.32
2022-10-31T23:54:07.013Z,67.61
2022-10-31T23:56:34.018Z,67.49
2022-10-31T23:59:00.941Z,67.51
